Time;durP1;ratioP1;P1;durP2;ratioP2;P2;SDS_P1;SDS_P2;PMS_P1;PMS_P2;Temp;Humidity;BMP_temperature;BMP_pressure;BME280_temperature;BME280_humidity;BME280_pressure;Samples;Min_cycle;Max_cycle;Signal;HPM_P1;HPM_P2
2022/05/01 00:00:25;;;;;;;20.90;10.27;;;;;;;;;;5125798;28;20031;-39
2022/05/01 00:02:51;;;;;;;13.23;9.93;;;;;;;;;;5124567;28;20483;-37
2022/05/01 00:05:16;;;;;;;16.25;11.32;;;;;;;;;;5126179;28;20049;-39
2022/05/01 00:07:42;;;;;;;13.80;9.88;;;;;;;;;;5125337;28;20039;-38
2022/05/01 00:10:09;;;;;;;25.35;11.57;;;;;;;;;;5125719;28;20107;-41
2022/05/01 00:12:35;;;;;;;14.45;11.45;;;;;;;;;;5124997;28;20191;-42
2022/05/01 00:15:01;;;;;;;12.10;9.73;;;;;;;;;;5125556;28;20051;-39
2022/05/01 00:17:26;;;;;;;15.60;11.23;;;;;;;;;;5124694;28;20074;-39
2022/05/01 00:19:52;;;;;;;11.32;9.93;;;;;;;;;;5125302;28;20414;-38
2022/05/01 00:22:17;;;;;;;18.75;10.23;;;;;;;;;;5125474;28;20054;-38
2022/05/01 00:24:42;;;;;;;9.82;8.93;;;;;;;;;;5128558;27;20114;-41
2022/05/01 00:27:08;;;;;;;14.90;9.40;;;;;;;;;;5128125;28;20529;-39
2022/05/01 00:29:33;;;;;;;17.35;10.18;;;;;;;;;;5128270;28;20046;-39
2022/05/01 00:31:59;;;;;;;8.07;7.28;;;;;;;;;;5128800;28;20047;-42
2022/05/01 00:37:08;;;;;;;9.88;8.82;;;;;;;;;;5128479;28;20110;-38
2022/05/01 00:39:33;;;;;;;17.75;10.02;;;;;;;;;;5107841;28;20043;-38
2022/05/01 00:41:59;;;;;;;12.57;10.00;;;;;;;;;;5128668;28;20184;-40
2022/05/01 00:44:25;;;;;;;11.00;7.63;;;;;;;;;;5129269;28;20027;-38
2022/05/01 00:46:51;;;;;;;12.27;9.13;;;;;;;;;;5128829;28;20454;-41
2022/05/01 00:49:24;;;;;;;11.63;7.30;;;;;;;;;;5128973;28;20047;-39
2022/05/01 00:51:59;;;;;;;18.83;9.32;;;;;;;;;;5129303;28;20066;-41
2022/05/01 00:54:27;;;;;;;16.13;8.32;;;;;;;;;;5128594;28;20051;-39
2022/05/01 00:56:54;;;;;;;14.25;8.48;;;;;;;;;;5127643;27;20054;-39
2022/05/01 00:59:20;;;;;;;11.80;7.53;;;;;;;;;;5117296;28;20039;-38
2022/05/01 01:01:46;;;;;;;12.85;6.93;;;;;;;;;;5126102;28;20039;-38
2022/05/01 01:04:11;;;;;;;10.98;5.88;;;;;;;;;;5125683;28;20055;-43
2022/05/01 01:06:37;;;;;;;7.75;5.60;;;;;;;;;;5124901;28;20287;-41
2022/05/01 01:09:03;;;;;;;9.43;6.55;;;;;;;;;;5125282;28;20054;-40
2022/05/01 01:11:29;;;;;;;6.82;5.57;;;;;;;;;;5125432;28;20103;-38
2022/05/01 01:13:55;;;;;;;10.82;6.95;;;;;;;;;;5125772;28;20545;-38
2022/05/01 01:16:21;;;;;;;8.00;6.95;;;;;;;;;;5101344;28;20043;-40
2022/05/01 01:18:47;;;;;;;12.25;8.18;;;;;;;;;;5125321;28;20072;-37
2022/05/01 01:21:12;;;;;;;7.45;6.75;;;;;;;;;;5126164;28;20035;-38
2022/05/01 01:23:39;;;;;;;8.15;6.70;;;;;;;;;;5125708;28;20036;-38
2022/05/01 01:26:04;;;;;;;14.07;7.65;;;;;;;;;;5125070;28;20031;-38
2022/05/01 01:28:32;;;;;;;20.90;7.93;;;;;;;;;;5125174;28;20061;-40
2022/05/01 01:33:43;;;;;;;10.45;5.60;;;;;;;;;;5125255;28;20558;-39
2022/05/01 01:36:11;;;;;;;14.52;5.95;;;;;;;;;;5124345;27;20053;-38
2022/05/01 01:38:39;;;;;;;8.88;6.35;;;;;;;;;;5124272;28;20058;-41
2022/05/01 01:41:08;;;;;;;15.52;6.65;;;;;;;;;;5127289;28;20043;-38
2022/05/01 01:43:34;;;;;;;15.45;8.07;;;;;;;;;;5128029;28;20046;-40
2022/05/01 01:46:02;;;;;;;14.40;7.47;;;;;;;;;;5126883;28;20131;-39
2022/05/01 01:48:30;;;;;;;17.63;8.27;;;;;;;;;;5128014;28;20046;-39
2022/05/01 01:51:28;;;;;;;16.17;7.65;;;;;;;;;;5126873;28;20039;-41
2022/05/01 01:53:56;;;;;;;9.50;6.45;;;;;;;;;;5106567;28;20082;-38
2022/05/01 01:56:21;;;;;;;7.47;5.65;;;;;;;;;;5127113;28;20039;-38
2022/05/01 01:58:47;;;;;;;5.95;5.35;;;;;;;;;;5127870;28;20126;-37
2022/05/01 02:01:12;;;;;;;5.18;4.60;;;;;;;;;;5127529;28;20051;-38
2022/05/01 02:03:38;;;;;;;7.55;6.82;;;;;;;;;;5127407;28;20563;-41
2022/05/01 02:06:04;;;;;;;8.05;7.28;;;;;;;;;;5127069;28;20131;-41
2022/05/01 02:08:30;;;;;;;8.23;6.43;;;;;;;;;;5127636;28;20047;-42
2022/05/01 02:10:55;;;;;;;6.53;5.93;;;;;;;;;;5127833;28;20043;-38
2022/05/01 02:13:20;;;;;;;10.40;7.47;;;;;;;;;;5126901;28;20526;-37
2022/05/01 02:15:46;;;;;;;6.43;5.05;;;;;;;;;;5127167;28;20130;-38
2022/05/01 02:18:11;;;;;;;9.07;5.72;;;;;;;;;;5127177;28;20039;-44
2022/05/01 02:23:21;;;;;;;6.05;5.18;;;;;;;;;;5126802;28;20575;-37
2022/05/01 02:25:47;;;;;;;7.07;5.03;;;;;;;;;;5108078;28;20047;-40
2022/05/01 02:28:12;;;;;;;6.45;4.80;;;;;;;;;;5127558;28;20043;-38
2022/05/01 02:30:38;;;;;;;8.23;5.97;;;;;;;;;;5126382;28;20473;-42
2022/05/01 02:33:06;;;;;;;7.03;6.28;;;;;;;;;;5126198;28;20505;-39
2022/05/01 02:35:35;;;;;;;7.35;5.22;;;;;;;;;;5106138;28;20058;-38
2022/05/01 02:38:03;;;;;;;9.75;5.55;;;;;;;;;;5126875;28;20088;-39
2022/05/01 02:40:35;;;;;;;7.32;5.25;;;;;;;;;;5122579;28;20084;-38
2022/05/01 02:43:01;;;;;;;8.60;4.85;;;;;;;;;;5125199;28;20458;-37
2022/05/01 02:45:26;;;;;;;5.30;4.78;;;;;;;;;;5127367;28;20030;-38
2022/05/01 02:47:52;;;;;;;6.82;4.03;;;;;;;;;;5127050;27;20534;-43
2022/05/01 02:50:17;;;;;;;6.38;5.43;;;;;;;;;;5126340;28;20062;-40
2022/05/01 02:52:43;;;;;;;11.35;6.80;;;;;;;;;;5126679;28;20058;-46
2022/05/01 02:55:09;;;;;;;12.05;6.25;;;;;;;;;;5126683;28;20462;-44
2022/05/01 02:57:34;;;;;;;21.45;9.40;;;;;;;;;;5105013;28;20035;-41
2022/05/01 02:59:59;;;;;;;13.00;10.80;;;;;;;;;;5126846;28;20055;-42
2022/05/01 03:02:25;;;;;;;13.88;8.80;;;;;;;;;;5125748;28;20035;-39
2022/05/01 03:04:50;;;;;;;11.43;9.20;;;;;;;;;;5125574;28;20047;-42
2022/05/01 03:07:17;;;;;;;14.32;7.05;;;;;;;;;;5126991;28;20039;-41
2022/05/01 03:09:42;;;;;;;29.98;8.68;;;;;;;;;;5126442;28;20051;-40
2022/05/01 03:12:08;;;;;;;9.55;7.85;;;;;;;;;;5126452;28;20043;-41
2022/05/01 03:14:33;;;;;;;9.98;7.13;;;;;;;;;;5124528;28;20095;-42
2022/05/01 03:16:58;;;;;;;11.30;7.38;;;;;;;;;;5126496;28;20046;-43
2022/05/01 03:22:10;;;;;;;10.82;9.73;;;;;;;;;;5121981;28;20103;-42
2022/05/01 03:24:36;;;;;;;8.13;7.32;;;;;;;;;;5126555;28;20047;-40
2022/05/01 03:27:02;;;;;;;7.20;6.50;;;;;;;;;;5126439;28;20077;-39
2022/05/01 03:29:27;;;;;;;18.77;7.53;;;;;;;;;;5126378;28;20047;-41
2022/05/01 03:31:53;;;;;;;7.32;6.57;;;;;;;;;;5126178;28;20114;-40
2022/05/01 03:34:18;;;;;;;6.53;4.78;;;;;;;;;;5125872;28;20143;-40
2022/05/01 03:36:47;;;;;;;6.90;4.90;;;;;;;;;;5125204;28;20054;-41
2022/05/01 03:39:13;;;;;;;10.35;4.53;;;;;;;;;;5126060;28;20043;-39
2022/05/01 03:41:38;;;;;;;4.97;4.35;;;;;;;;;;5125738;28;20054;-41
2022/05/01 03:44:04;;;;;;;11.88;5.50;;;;;;;;;;5126114;28;20043;-41
2022/05/01 03:46:29;;;;;;;5.45;4.57;;;;;;;;;;5126046;28;20171;-42
2022/05/01 03:48:55;;;;;;;7.28;5.38;;;;;;;;;;5126119;28;20043;-41
2022/05/01 03:51:20;;;;;;;8.50;7.05;;;;;;;;;;5125971;28;20130;-40
2022/05/01 03:53:45;;;;;;;10.88;6.05;;;;;;;;;;5126094;28;20086;-41
2022/05/01 03:56:11;;;;;;;8.13;5.22;;;;;;;;;;5125910;28;20071;-43
2022/05/01 03:58:36;;;;;;;8.55;6.60;;;;;;;;;;5126810;27;20206;-40
2022/05/01 04:01:02;;;;;;;13.88;4.32;;;;;;;;;;5129933;28;20110;-39
2022/05/01 04:03:28;;;;;;;8.05;5.50;;;;;;;;;;5129739;28;20701;-41
2022/05/01 04:05:53;;;;;;;5.32;4.35;;;;;;;;;;5127793;28;20054;-41
2022/05/01 04:08:19;;;;;;;7.28;5.13;;;;;;;;;;5128702;28;20047;-38
2022/05/01 04:10:45;;;;;;;5.13;4.60;;;;;;;;;;5129310;28;20035;-43
2022/05/01 04:13:11;;;;;;;7.53;4.47;;;;;;;;;;5129578;28;20057;-42
2022/05/01 04:15:37;;;;;;;6.45;5.30;;;;;;;;;;5128815;28;20099;-41
2022/05/01 04:18:05;;;;;;;7.47;5.43;;;;;;;;;;5129196;28;20051;-41
2022/05/01 04:20:32;;;;;;;13.23;6.07;;;;;;;;;;5127546;28;20341;-41
2022/05/01 04:22:58;;;;;;;18.23;7.07;;;;;;;;;;5129251;28;20074;-40
2022/05/01 04:25:24;;;;;;;5.35;4.18;;;;;;;;;;5129152;28;20047;-42
2022/05/01 04:27:53;;;;;;;18.40;7.65;;;;;;;;;;5128363;28;20277;-38
2022/05/01 04:30:20;;;;;;;8.15;6.25;;;;;;;;;;5128506;28;20134;-40
2022/05/01 04:33:06;;;;;;;10.43;7.35;;;;;;;;;;5128732;28;20178;-39
2022/05/01 04:35:37;;;;;;;16.38;6.68;;;;;;;;;;5127280;28;20047;-39
2022/05/01 04:38:07;;;;;;;6.97;5.82;;;;;;;;;;5128706;28;20058;-39
2022/05/01 04:40:38;;;;;;;10.13;6.13;;;;;;;;;;5123660;28;20684;-39
2022/05/01 04:43:07;;;;;;;5.97;5.40;;;;;;;;;;5128923;28;20039;-38
2022/05/01 04:45:33;;;;;;;10.55;7.65;;;;;;;;;;5123119;28;20049;-40
2022/05/01 04:47:59;;;;;;;13.95;6.63;;;;;;;;;;5128842;28;20142;-39
2022/05/01 04:50:24;;;;;;;7.72;5.97;;;;;;;;;;5128222;28;20051;-40
2022/05/01 04:52:50;;;;;;;22.13;5.78;;;;;;;;;;5128991;28;20164;-40
2022/05/01 04:55:15;;;;;;;11.00;7.05;;;;;;;;;;5128725;28;20051;-42
2022/05/01 04:57:41;;;;;;;8.82;5.07;;;;;;;;;;5128710;28;20035;-39
2022/05/01 05:00:07;;;;;;;4.85;4.28;;;;;;;;;;5128939;28;20185;-42
2022/05/01 05:02:34;;;;;;;6.60;5.80;;;;;;;;;;5128034;28;20035;-38
2022/05/01 05:04:59;;;;;;;5.18;4.68;;;;;;;;;;5128376;28;20108;-42
2022/05/01 05:07:24;;;;;;;13.43;6.30;;;;;;;;;;5109804;28;20432;-43
2022/05/01 05:09:56;;;;;;;5.25;4.75;;;;;;;;;;5127420;27;20053;-41
2022/05/01 05:12:24;;;;;;;6.13;5.35;;;;;;;;;;5127950;28;20080;-43
2022/05/01 05:14:52;;;;;;;9.52;5.88;;;;;;;;;;5128387;28;20051;-38
2022/05/01 05:17:21;;;;;;;6.47;5.47;;;;;;;;;;5128433;28;20059;-38
2022/05/01 05:19:46;;;;;;;7.57;5.10;;;;;;;;;;5128524;28;20096;-40
2022/05/01 05:22:12;;;;;;;6.13;4.43;;;;;;;;;;5128454;28;20039;-42
2022/05/01 05:24:37;;;;;;;6.63;4.32;;;;;;;;;;5127524;28;20553;-44
2022/05/01 05:27:03;;;;;;;13.63;5.15;;;;;;;;;;5128256;28;20145;-43
2022/05/01 05:29:28;;;;;;;4.90;3.95;;;;;;;;;;5127820;28;20130;-42
2022/05/01 05:31:54;;;;;;;8.40;6.20;;;;;;;;;;5128404;28;20053;-39
2022/05/01 05:34:19;;;;;;;12.02;4.55;;;;;;;;;;5127914;28;20122;-44
2022/05/01 05:36:44;;;;;;;4.82;4.38;;;;;;;;;;5128073;28;20039;-40
2022/05/01 05:39:10;;;;;;;17.38;4.95;;;;;;;;;;5127775;28;20046;-39
2022/05/01 05:41:35;;;;;;;5.40;4.30;;;;;;;;;;5127899;28;21402;-39
2022/05/01 05:44:01;;;;;;;7.72;4.43;;;;;;;;;;5128019;28;20663;-40
2022/05/01 05:46:26;;;;;;;16.48;5.93;;;;;;;;;;5126860;28;20471;-39
2022/05/01 05:48:51;;;;;;;5.72;4.10;;;;;;;;;;5127570;28;20066;-39
2022/05/01 05:51:17;;;;;;;13.32;4.88;;;;;;;;;;5127971;28;20131;-46
2022/05/01 05:53:42;;;;;;;9.32;5.78;;;;;;;;;;5128096;28;20122;-42
2022/05/01 05:56:08;;;;;;;9.18;6.65;;;;;;;;;;5127428;28;20678;-39
2022/05/01 05:58:33;;;;;;;7.75;6.63;;;;;;;;;;5127787;28;20043;-40
2022/05/01 06:00:58;;;;;;;12.63;7.38;;;;;;;;;;5125628;28;20499;-40
2022/05/01 06:03:24;;;;;;;23.02;7.20;;;;;;;;;;5127102;28;20058;-43
2022/05/01 06:05:49;;;;;;;10.68;6.07;;;;;;;;;;5127457;28;20043;-40
2022/05/01 06:08:15;;;;;;;4.60;3.60;;;;;;;;;;5127574;28;20078;-44
2022/05/01 06:10:40;;;;;;;6.70;4.47;;;;;;;;;;5127220;28;20042;-40
2022/05/01 06:13:06;;;;;;;13.73;5.47;;;;;;;;;;5127124;28;20042;-39
2022/05/01 06:15:31;;;;;;;9.07;4.50;;;;;;;;;;5127449;28;20819;-39
2022/05/01 06:17:56;;;;;;;4.55;3.20;;;;;;;;;;5127576;28;20062;-41
2022/05/01 06:20:22;;;;;;;8.00;4.13;;;;;;;;;;5127195;28;20054;-39
2022/05/01 06:22:50;;;;;;;9.57;4.07;;;;;;;;;;5126852;27;20537;-43
2022/05/01 06:25:15;;;;;;;8.00;3.92;;;;;;;;;;5127502;28;20072;-40
2022/05/01 06:27:41;;;;;;;7.30;5.45;;;;;;;;;;5126957;28;20043;-41
2022/05/01 06:30:07;;;;;;;12.80;6.15;;;;;;;;;;5127130;28;20050;-39
2022/05/01 06:32:33;;;;;;;11.45;6.22;;;;;;;;;;5127379;28;20124;-42
2022/05/01 06:34:59;;;;;;;5.93;5.25;;;;;;;;;;5126815;28;20152;-38
2022/05/01 06:37:24;;;;;;;5.90;3.20;;;;;;;;;;5126465;28;20055;-38
2022/05/01 06:39:49;;;;;;;4.00;3.40;;;;;;;;;;5126852;28;20035;-39
2022/05/01 06:42:15;;;;;;;4.60;3.45;;;;;;;;;;5127399;28;20494;-41
2022/05/01 06:44:40;;;;;;;12.27;4.95;;;;;;;;;;5126917;28;20027;-40
2022/05/01 06:47:08;;;;;;;12.45;4.10;;;;;;;;;;5127150;28;20043;-42
2022/05/01 06:49:33;;;;;;;5.38;4.28;;;;;;;;;;5126242;28;20055;-42
2022/05/01 06:51:58;;;;;;;8.32;4.97;;;;;;;;;;5127052;28;20042;-40
2022/05/01 06:54:24;;;;;;;4.57;4.07;;;;;;;;;;5126892;28;20047;-39
2022/05/01 06:56:49;;;;;;;4.70;3.22;;;;;;;;;;5125264;28;20123;-40
2022/05/01 06:59:16;;;;;;;5.05;3.58;;;;;;;;;;5127270;28;20047;-40
2022/05/01 07:01:41;;;;;;;8.32;3.17;;;;;;;;;;5126491;28;20047;-42
2022/05/01 07:04:07;;;;;;;14.13;4.18;;;;;;;;;;5126595;28;20058;-38
2022/05/01 07:06:33;;;;;;;6.60;4.38;;;;;;;;;;5126451;28;20103;-41
2022/05/01 07:08:58;;;;;;;4.07;3.33;;;;;;;;;;5126921;28;20054;-43
2022/05/01 07:11:23;;;;;;;9.82;4.05;;;;;;;;;;5126567;28;20126;-45
2022/05/01 07:13:49;;;;;;;5.47;4.05;;;;;;;;;;5126442;28;20122;-43
2022/05/01 07:16:14;;;;;;;5.10;3.15;;;;;;;;;;5126868;28;20130;-44
2022/05/01 07:18:39;;;;;;;10.20;3.45;;;;;;;;;;5124276;28;20047;-41
2022/05/01 07:21:05;;;;;;;3.70;2.20;;;;;;;;;;5126835;28;20051;-39
2022/05/01 07:23:30;;;;;;;4.72;2.53;;;;;;;;;;5125678;28;20126;-40
2022/05/01 07:25:56;;;;;;;3.60;2.95;;;;;;;;;;5125020;28;20684;-45
2022/05/01 07:28:21;;;;;;;5.03;3.65;;;;;;;;;;5126449;28;20051;-54
2022/05/01 07:30:47;;;;;;;11.35;4.00;;;;;;;;;;5126401;28;20540;-52
2022/05/01 07:33:12;;;;;;;3.10;2.80;;;;;;;;;;5125192;27;20736;-54
2022/05/01 07:35:37;;;;;;;4.45;3.15;;;;;;;;;;5125973;28;20681;-51
2022/05/01 07:38:03;;;;;;;6.15;4.65;;;;;;;;;;5126047;28;20039;-55
2022/05/01 07:40:29;;;;;;;3.70;3.20;;;;;;;;;;5125887;28;20159;-54
2022/05/01 07:42:54;;;;;;;3.88;2.75;;;;;;;;;;5126313;28;20096;-55
2022/05/01 07:45:19;;;;;;;10.20;3.75;;;;;;;;;;5126238;28;20138;-56
2022/05/01 07:47:45;;;;;;;3.70;3.28;;;;;;;;;;5126113;28;20467;-59
2022/05/01 07:50:12;;;;;;;15.35;12.80;;;;;;;;;;5106092;28;20579;-58
2022/05/01 07:52:38;;;;;;;4.20;3.80;;;;;;;;;;5123904;28;20058;-58
2022/05/01 07:55:03;;;;;;;5.63;2.97;;;;;;;;;;5125802;28;20035;-58
2022/05/01 07:57:29;;;;;;;8.43;5.10;;;;;;;;;;5125382;28;20450;-58
2022/05/01 07:59:54;;;;;;;4.18;2.97;;;;;;;;;;5124468;28;20039;-57
2022/05/01 08:02:20;;;;;;;5.20;3.33;;;;;;;;;;5125721;28;20116;-58
2022/05/01 08:04:46;;;;;;;5.70;3.00;;;;;;;;;;5125956;28;20040;-59
2022/05/01 08:07:11;;;;;;;4.82;3.78;;;;;;;;;;5125631;28;20412;-58
2022/05/01 08:09:36;;;;;;;4.85;3.58;;;;;;;;;;5126005;28;20059;-58
2022/05/01 08:12:03;;;;;;;6.78;3.88;;;;;;;;;;5126093;28;20053;-58
2022/05/01 08:14:28;;;;;;;5.93;3.03;;;;;;;;;;5125836;28;20085;-58
2022/05/01 08:16:54;;;;;;;6.75;3.83;;;;;;;;;;5125548;28;20081;-58
2022/05/01 08:22:06;;;;;;;4.95;3.95;;;;;;;;;;5125743;28;20115;-58
2022/05/01 08:24:32;;;;;;;4.05;3.13;;;;;;;;;;5123908;28;20179;-61
2022/05/01 08:27:04;;;;;;;6.10;4.30;;;;;;;;;;5124875;28;20039;-59
2022/05/01 08:29:30;;;;;;;8.88;3.28;;;;;;;;;;5122151;28;20043;-58
2022/05/01 08:31:55;;;;;;;7.38;3.42;;;;;;;;;;5125391;28;20142;-58
2022/05/01 08:34:20;;;;;;;11.57;3.00;;;;;;;;;;5124727;28;20058;-57
2022/05/01 08:36:46;;;;;;;7.03;3.58;;;;;;;;;;5125803;28;20470;-58
2022/05/01 08:39:11;;;;;;;7.07;2.90;;;;;;;;;;5125259;28;20047;-57
2022/05/01 08:41:37;;;;;;;4.53;2.88;;;;;;;;;;5124775;28;20032;-57
2022/05/01 08:44:02;;;;;;;4.40;3.13;;;;;;;;;;5124787;28;20054;-55
2022/05/01 08:46:33;;;;;;;6.97;3.83;;;;;;;;;;5127698;28;20040;-59
2022/05/01 08:49:05;;;;;;;4.40;3.08;;;;;;;;;;5128016;28;20043;-62
2022/05/01 08:51:35;;;;;;;11.05;8.95;;;;;;;;;;5128904;28;20094;-59
2022/05/01 08:54:07;;;;;;;8.75;5.97;;;;;;;;;;5128122;28;20043;-59
2022/05/01 08:56:34;;;;;;;17.17;15.25;;;;;;;;;;5128227;28;20054;-60
2022/05/01 08:59:00;;;;;;;6.43;3.97;;;;;;;;;;5128154;28;20137;-59
2022/05/01 09:01:26;;;;;;;4.05;2.30;;;;;;;;;;5127496;28;20050;-55
2022/05/01 09:03:55;;;;;;;3.70;2.42;;;;;;;;;;5127710;28;20047;-46
2022/05/01 09:06:23;;;;;;;5.80;3.40;;;;;;;;;;5128615;28;20122;-56
2022/05/01 09:08:51;;;;;;;3.83;2.63;;;;;;;;;;5128195;28;20146;-46
2022/05/01 09:14:04;;;;;;;6.38;3.10;;;;;;;;;;5126841;28;20054;-48
2022/05/01 09:16:29;;;;;;;3.75;2.50;;;;;;;;;;5126652;28;20039;-49
2022/05/01 09:18:58;;;;;;;3.13;2.25;;;;;;;;;;5127692;28;20669;-57
2022/05/01 09:21:26;;;;;;;4.13;3.33;;;;;;;;;;5125213;28;20061;-59
2022/05/01 09:23:51;;;;;;;7.13;2.70;;;;;;;;;;5126392;28;20505;-60
2022/05/01 09:26:18;;;;;;;2.58;1.73;;;;;;;;;;5127213;28;20039;-60
2022/05/01 09:28:51;;;;;;;2.15;1.95;;;;;;;;;;5126993;28;20474;-58
2022/05/01 09:31:36;;;;;;;4.38;3.03;;;;;;;;;;5127387;28;20038;-57
2022/05/01 09:34:21;;;;;;;4.32;2.78;;;;;;;;;;5103299;28;20666;-57
2022/05/01 09:36:47;;;;;;;3.78;2.67;;;;;;;;;;5126364;28;20047;-58
2022/05/01 09:39:27;;;;;;;8.82;2.88;;;;;;;;;;5127075;28;20100;-50
2022/05/01 09:41:54;;;;;;;3.13;2.30;;;;;;;;;;5125764;28;20039;-58
2022/05/01 09:44:20;;;;;;;6.63;2.08;;;;;;;;;;5126089;28;20306;-56
2022/05/01 09:46:46;;;;;;;4.13;2.67;;;;;;;;;;5124739;27;20154;-54
2022/05/01 09:49:15;;;;;;;2.90;2.05;;;;;;;;;;5126081;28;20452;-56
2022/05/01 09:51:43;;;;;;;13.73;2.50;;;;;;;;;;5126100;28;20130;-57
2022/05/01 09:54:09;;;;;;;2.42;2.00;;;;;;;;;;5125101;28;20528;-58
2022/05/01 09:56:44;;;;;;;5.07;2.15;;;;;;;;;;5125866;27;20067;-60
2022/05/01 09:59:09;;;;;;;3.13;2.30;;;;;;;;;;5125952;28;20063;-58
2022/05/01 10:01:34;;;;;;;2.30;1.73;;;;;;;;;;5126572;28;20086;-59
2022/05/01 10:04:02;;;;;;;3.28;1.58;;;;;;;;;;5126480;28;20050;-57
2022/05/01 10:06:28;;;;;;;6.90;2.45;;;;;;;;;;5126092;28;20035;-57
2022/05/01 10:08:54;;;;;;;11.95;7.40;;;;;;;;;;5125558;28;20418;-57
2022/05/01 10:11:22;;;;;;;7.00;3.88;;;;;;;;;;5125451;28;20077;-54
2022/05/01 10:13:47;;;;;;;17.95;3.80;;;;;;;;;;5124782;28;20039;-58
2022/05/01 10:16:15;;;;;;;5.20;2.85;;;;;;;;;;5126176;28;20035;-56
2022/05/01 10:18:41;;;;;;;11.27;4.22;;;;;;;;;;5126188;28;20046;-56
2022/05/01 10:21:06;;;;;;;2.70;1.83;;;;;;;;;;5118948;28;20387;-56
2022/05/01 10:23:32;;;;;;;15.85;14.52;;;;;;;;;;5119536;27;20585;-58
2022/05/01 10:26:18;;;;;;;4.60;2.95;;;;;;;;;;5119097;28;20114;-57
2022/05/01 10:29:02;;;;;;;3.10;2.03;;;;;;;;;;5122322;28;20727;-58
2022/05/01 10:34:14;;;;;;;5.85;2.80;;;;;;;;;;5122019;28;20054;-57
2022/05/01 10:36:47;;;;;;;7.70;2.95;;;;;;;;;;5121613;27;20047;-58
2022/05/01 10:39:17;;;;;;;2.03;1.33;;;;;;;;;;5122221;28;20046;-58
2022/05/01 10:41:44;;;;;;;12.85;2.70;;;;;;;;;;5121699;28;20524;-59
2022/05/01 10:44:30;;;;;;;3.45;2.65;;;;;;;;;;5123587;28;20039;-58
2022/05/01 10:47:03;;;;;;;6.45;2.97;;;;;;;;;;5122305;28;20498;-59
2022/05/01 10:49:32;;;;;;;3.90;2.45;;;;;;;;;;5123492;28;20162;-58
2022/05/01 10:52:12;;;;;;;2.05;1.15;;;;;;;;;;5122826;28;20046;-58
2022/05/01 10:54:40;;;;;;;7.05;2.90;;;;;;;;;;5123138;28;20039;-58
2022/05/01 10:57:10;;;;;;;5.13;3.03;;;;;;;;;;5121683;28;20043;-58
2022/05/01 10:59:42;;;;;;;8.68;4.63;;;;;;;;;;5123550;28;20125;-58
2022/05/01 11:02:17;;;;;;;7.60;3.67;;;;;;;;;;5123402;28;20506;-58
2022/05/01 11:04:42;;;;;;;2.72;1.90;;;;;;;;;;5123825;28;20046;-58
2022/05/01 11:07:13;;;;;;;2.72;2.20;;;;;;;;;;5122535;28;20686;-58
2022/05/01 11:09:40;;;;;;;4.57;1.45;;;;;;;;;;5118224;28;20546;-58
2022/05/01 11:12:07;;;;;;;6.68;2.63;;;;;;;;;;5121254;28;20046;-59
2022/05/01 11:14:38;;;;;;;2.47;1.65;;;;;;;;;;5120089;28;20155;-59
2022/05/01 11:17:04;;;;;;;4.47;2.78;;;;;;;;;;5123841;28;20075;-59
2022/05/01 11:19:31;;;;;;;2.42;1.58;;;;;;;;;;5121991;28;20536;-59
2022/05/01 11:21:58;;;;;;;4.18;2.25;;;;;;;;;;5101051;28;20051;-60
2022/05/01 11:24:42;;;;;;;8.18;1.88;;;;;;;;;;5117789;28;20171;-58
2022/05/01 11:27:10;;;;;;;2.60;1.23;;;;;;;;;;5119408;28;20057;-59
2022/05/01 11:29:36;;;;;;;2.85;2.22;;;;;;;;;;5117210;27;20059;-59
2022/05/01 11:32:19;;;;;;;2.47;1.38;;;;;;;;;;5117385;28;20131;-57
2022/05/01 11:34:52;;;;;;;2.10;1.52;;;;;;;;;;5119370;28;20043;-57
2022/05/01 11:37:18;;;;;;;7.07;2.67;;;;;;;;;;5120462;28;20039;-57
2022/05/01 11:39:43;;;;;;;3.08;2.20;;;;;;;;;;5118884;28;20568;-60
2022/05/01 11:42:24;;;;;;;21.70;2.88;;;;;;;;;;5118439;28;20065;-58
2022/05/01 11:44:54;;;;;;;2.63;1.67;;;;;;;;;;5119846;28;20046;-56
2022/05/01 11:47:20;;;;;;;4.83;2.20;;;;;;;;;;5118161;28;20043;-58
2022/05/01 11:49:46;;;;;;;6.05;3.10;;;;;;;;;;5120247;28;20165;-57
2022/05/01 11:52:16;;;;;;;4.15;1.45;;;;;;;;;;5119130;28;20577;-57
2022/05/01 11:54:49;;;;;;;6.38;2.92;;;;;;;;;;5118937;28;20390;-57
2022/05/01 12:02:45;;;;;;;6.93;2.33;;;;;;;;;;5117366;28;20100;-56
2022/05/01 12:05:10;;;;;;;8.63;3.35;;;;;;;;;;5118192;28;20035;-56
2022/05/01 12:07:36;;;;;;;7.50;3.15;;;;;;;;;;5118433;28;20125;-55
2022/05/01 12:10:01;;;;;;;3.05;1.80;;;;;;;;;;5121122;28;20054;-50
2022/05/01 12:12:27;;;;;;;3.70;2.00;;;;;;;;;;5120177;28;20040;-54
2022/05/01 12:14:53;;;;;;;4.00;3.05;;;;;;;;;;5118769;28;20051;-53
2022/05/01 12:17:20;;;;;;;5.25;3.25;;;;;;;;;;5119718;28;20522;-57
2022/05/01 12:19:49;;;;;;;1.85;0.82;;;;;;;;;;5119102;27;20039;-56
2022/05/01 12:22:18;;;;;;;2.67;1.92;;;;;;;;;;5123301;28;20044;-57
2022/05/01 12:24:45;;;;;;;9.45;2.35;;;;;;;;;;5122279;28;20566;-56
2022/05/01 12:27:14;;;;;;;3.42;1.88;;;;;;;;;;5121374;28;20158;-56
2022/05/01 12:29:47;;;;;;;9.90;3.25;;;;;;;;;;5121598;27;20038;-57
2022/05/01 12:32:13;;;;;;;12.40;3.00;;;;;;;;;;5122840;28;20070;-57
2022/05/01 12:34:48;;;;;;;3.15;2.33;;;;;;;;;;5121692;28;20051;-57
2022/05/01 12:37:15;;;;;;;3.30;1.77;;;;;;;;;;5119928;28;20103;-50
2022/05/01 12:39:40;;;;;;;4.13;3.58;;;;;;;;;;5121382;28;20775;-56
2022/05/01 12:45:09;;;;;;;2.65;1.33;;;;;;;;;;5121030;27;20057;-54
2022/05/01 12:47:37;;;;;;;11.15;1.88;;;;;;;;;;5120674;28;20039;-56
2022/05/01 12:50:03;;;;;;;2.15;1.55;;;;;;;;;;5117084;28;20054;-57
2022/05/01 12:52:30;;;;;;;3.58;1.92;;;;;;;;;;5120525;28;20054;-57
2022/05/01 12:55:04;;;;;;;3.63;1.90;;;;;;;;;;5121395;27;20043;-54
2022/05/01 12:57:30;;;;;;;11.60;3.92;;;;;;;;;;5118454;28;20039;-60
2022/05/01 12:59:56;;;;;;;2.58;1.70;;;;;;;;;;5121051;28;20085;-55
2022/05/01 13:02:21;;;;;;;4.03;2.13;;;;;;;;;;5121436;28;20051;-57
2022/05/01 13:04:56;;;;;;;6.75;2.45;;;;;;;;;;5121853;28;20064;-56
2022/05/01 13:07:31;;;;;;;3.25;1.77;;;;;;;;;;5120262;28;20103;-57
2022/05/01 13:09:56;;;;;;;2.58;1.50;;;;;;;;;;5119881;28;20050;-57
2022/05/01 13:12:37;;;;;;;4.38;2.30;;;;;;;;;;5120837;28;20055;-57
2022/05/01 13:15:04;;;;;;;2.63;1.25;;;;;;;;;;5121641;28;20079;-57
2022/05/01 13:17:31;;;;;;;2.30;1.80;;;;;;;;;;5120909;28;20055;-55
2022/05/01 13:19:57;;;;;;;3.97;2.42;;;;;;;;;;5120154;28;20051;-57
2022/05/01 13:22:22;;;;;;;3.45;2.22;;;;;;;;;;5120730;28;20462;-57
2022/05/01 13:24:52;;;;;;;3.22;1.48;;;;;;;;;;5120215;28;20122;-56
2022/05/01 13:27:18;;;;;;;3.67;2.03;;;;;;;;;;5121555;28;20054;-56
2022/05/01 13:29:43;;;;;;;3.60;2.20;;;;;;;;;;5121088;28;20054;-57
2022/05/01 13:32:09;;;;;;;2.90;2.10;;;;;;;;;;5100099;28;20377;-57
2022/05/01 13:34:35;;;;;;;2.28;1.58;;;;;;;;;;5119604;28;20497;-57
2022/05/01 13:37:01;;;;;;;3.83;1.70;;;;;;;;;;5121247;28;20143;-57
2022/05/01 13:44:44;;;;;;;5.10;2.15;;;;;;;;;;5120226;28;20859;-58
2022/05/01 13:44:57;;;;;;;4.65;2.08;;;;;;;;;;5120840;28;20054;-54
2022/05/01 13:47:23;;;;;;;5.65;2.38;;;;;;;;;;5121058;28;20078;-54
2022/05/01 13:49:49;;;;;;;5.07;2.70;;;;;;;;;;5121332;28;20153;-51
2022/05/01 13:52:14;;;;;;;3.67;1.55;;;;;;;;;;5121162;28;20042;-55
2022/05/01 13:54:39;;;;;;;3.35;1.40;;;;;;;;;;5121509;28;20608;-55
2022/05/01 13:57:06;;;;;;;3.38;1.63;;;;;;;;;;5120906;28;20049;-53
2022/05/01 13:59:31;;;;;;;3.38;1.80;;;;;;;;;;5120882;28;20043;-52
2022/05/01 14:01:58;;;;;;;6.25;1.55;;;;;;;;;;5119365;28;20041;-55
2022/05/01 14:04:24;;;;;;;7.38;1.92;;;;;;;;;;5121054;28;20051;-54
2022/05/01 14:06:50;;;;;;;6.57;2.63;;;;;;;;;;5121053;28;20104;-46
2022/05/01 14:09:18;;;;;;;3.45;1.80;;;;;;;;;;5120517;28;20039;-52
2022/05/01 14:11:47;;;;;;;2.60;1.52;;;;;;;;;;5119472;28;20536;-48
2022/05/01 14:14:13;;;;;;;8.18;3.25;;;;;;;;;;5119875;28;20043;-51
2022/05/01 14:16:40;;;;;;;3.50;2.78;;;;;;;;;;5119293;28;20027;-49
2022/05/01 14:19:06;;;;;;;5.82;3.20;;;;;;;;;;5115445;28;20126;-49
2022/05/01 14:21:33;;;;;;;8.52;2.47;;;;;;;;;;5119182;28;20054;-48
2022/05/01 14:23:58;;;;;;;4.07;2.45;;;;;;;;;;5120913;28;20139;-48
2022/05/01 14:26:23;;;;;;;5.18;2.95;;;;;;;;;;5122220;28;20118;-52
2022/05/01 14:28:49;;;;;;;3.58;2.80;;;;;;;;;;5122914;28;20411;-49
2022/05/01 14:31:37;;;;;;;5.47;1.95;;;;;;;;;;5122799;27;20070;-49
2022/05/01 14:34:11;;;;;;;6.75;3.17;;;;;;;;;;5122601;28;20047;-50
2022/05/01 14:36:38;;;;;;;3.60;2.38;;;;;;;;;;5123538;28;20075;-51
2022/05/01 14:39:06;;;;;;;6.72;1.60;;;;;;;;;;5121604;28;20047;-52
2022/05/01 14:41:38;;;;;;;10.98;3.15;;;;;;;;;;5122998;28;20035;-50
2022/05/01 14:44:04;;;;;;;7.68;2.55;;;;;;;;;;5124059;27;20047;-44
2022/05/01 14:46:34;;;;;;;9.50;3.75;;;;;;;;;;5122875;28;20038;-49
2022/05/01 14:49:12;;;;;;;3.78;1.27;;;;;;;;;;5122081;28;20051;-47
2022/05/01 14:51:38;;;;;;;5.60;3.25;;;;;;;;;;5123380;28;20102;-51
2022/05/01 14:54:04;;;;;;;3.15;1.65;;;;;;;;;;5123711;28;20047;-45
2022/05/01 14:56:30;;;;;;;2.72;1.38;;;;;;;;;;5121940;28;20050;-41
2022/05/01 15:07:13;;;;;;;4.32;1.30;;;;;;;;;;5123408;28;20049;-43
2022/05/01 15:09:38;;;;;;;5.28;3.08;;;;;;;;;;5123256;28;20047;-44
2022/05/01 15:12:04;;;;;;;3.90;1.77;;;;;;;;;;5123759;28;20046;-41
2022/05/01 15:14:29;;;;;;;3.55;1.70;;;;;;;;;;5123730;28;20047;-42
2022/05/01 15:17:02;;;;;;;2.50;1.38;;;;;;;;;;5123652;28;20108;-41